Time;durP1;ratioP1;P1;durP2;ratioP2;P2;SDS_P1;SDS_P2;PMS_P1;PMS_P2;Temp;Humidity;BMP_temperature;BMP_pressure;BME280_temperature;BME280_humidity;BME280_pressure;Samples;Min_cycle;Max_cycle;Signal;HPM_P1;HPM_P2
2022/06/09 00:02:01;;;;;;;11.52;8.65;;;19.60;99.90;;;;;;4943411;29;20038;-86
2022/06/09 00:04:37;;;;;;;10.45;8.50;;;19.60;99.90;;;;;;4950903;28;20043;-85
2022/06/09 00:07:08;;;;;;;9.60;7.72;;;19.60;99.90;;;;;;4940888;29;20063;-86
2022/06/09 00:09:40;;;;;;;11.38;8.18;;;19.60;99.90;;;;;;4948144;29;20082;-88
2022/06/09 00:12:07;;;;;;;12.15;8.88;;;19.60;99.90;;;;;;4945616;29;20487;-88
2022/06/09 00:14:33;;;;;;;11.38;8.30;;;19.50;99.90;;;;;;4952256;29;20059;-86
2022/06/09 00:17:00;;;;;;;12.70;8.85;;;19.50;99.90;;;;;;4953402;29;20501;-86
2022/06/09 00:19:25;;;;;;;11.90;8.93;;;19.50;99.90;;;;;;4948158;29;20040;-86
2022/06/09 00:21:51;;;;;;;10.73;7.80;;;19.50;99.90;;;;;;4947073;29;20044;-86
2022/06/09 00:24:17;;;;;;;11.57;9.02;;;19.50;99.90;;;;;;4947299;29;20059;-85
2022/06/09 00:26:43;;;;;;;12.73;9.43;;;19.50;99.90;;;;;;4947854;29;20031;-84
2022/06/09 00:29:09;;;;;;;14.40;9.10;;;19.50;99.90;;;;;;4948414;29;20126;-85
2022/06/09 00:31:35;;;;;;;13.23;8.77;;;19.50;99.90;;;;;;4954643;29;20031;-86
2022/06/09 00:34:01;;;;;;;11.50;8.55;;;19.50;99.90;;;;;;4956136;29;20545;-86
2022/06/09 00:36:29;;;;;;;13.23;9.57;;;19.50;99.90;;;;;;4947375;29;20036;-85
2022/06/09 00:38:57;;;;;;;12.40;9.48;;;19.50;99.90;;;;;;4948782;29;20032;-88
2022/06/09 00:41:24;;;;;;;12.63;9.38;;;19.50;99.90;;;;;;4948861;29;20052;-86
2022/06/09 00:43:50;;;;;;;13.00;9.02;;;19.50;99.90;;;;;;4952089;29;20027;-89
2022/06/09 00:46:22;;;;;;;16.52;9.88;;;19.50;99.90;;;;;;4952564;29;20036;-86
2022/06/09 00:48:56;;;;;;;13.43;10.30;;;19.50;99.90;;;;;;4957271;29;20035;-84
2022/06/09 00:51:26;;;;;;;14.60;10.53;;;19.60;99.90;;;;;;4958765;29;20046;-85
2022/06/09 00:53:57;;;;;;;15.10;10.48;;;19.60;99.90;;;;;;4961771;29;20335;-85
2022/06/09 00:56:23;;;;;;;13.23;9.90;;;19.70;99.90;;;;;;4950288;29;20073;-87
2022/06/09 00:58:51;;;;;;;14.98;10.63;;;19.70;99.90;;;;;;4957565;29;20035;-87
2022/06/09 01:01:18;;;;;;;12.52;9.88;;;19.60;99.90;;;;;;4956095;29;20032;-83
2022/06/09 01:03:52;;;;;;;17.88;10.40;;;19.60;99.90;;;;;;4963985;28;20054;-83
2022/06/09 01:06:22;;;;;;;14.50;9.97;;;19.60;99.90;;;;;;4959733;28;20066;-83
2022/06/09 01:09:18;;;;;;;15.20;10.23;;;19.50;99.90;;;;;;4956357;28;20050;-87
2022/06/09 01:11:50;;;;;;;14.65;10.88;;;19.50;99.90;;;;;;4950071;29;20043;-85
2022/06/09 01:14:20;;;;;;;13.27;10.15;;;19.50;99.90;;;;;;4947537;29;20042;-87
2022/06/09 01:17:07;;;;;;;14.70;10.20;;;19.60;99.90;;;;;;4947678;29;20036;-86
2022/06/09 01:19:56;;;;;;;16.20;10.25;;;19.70;99.90;;;;;;4950986;29;20105;-87
2022/06/09 01:22:42;;;;;;;13.38;9.68;;;19.70;99.90;;;;;;4941538;29;20035;-87
2022/06/09 01:25:43;;;;;;;12.93;9.48;;;19.70;99.90;;;;;;4941079;29;20115;-87
2022/06/09 01:28:39;;;;;;;15.05;9.05;;;19.70;99.90;;;;;;4947471;29;20043;-86
2022/06/09 01:31:14;;;;;;;12.80;9.00;;;19.70;99.90;;;;;;4947447;29;20040;-86
2022/06/09 01:33:47;;;;;;;17.75;9.40;;;19.70;99.90;;;;;;4952093;29;20118;-87
2022/06/09 01:36:24;;;;;;;13.02;9.23;;;19.70;99.90;;;;;;4947517;29;20040;-84
2022/06/09 01:38:55;;;;;;;13.00;9.27;;;19.60;99.90;;;;;;4947063;29;20027;-87
2022/06/09 01:41:23;;;;;;;12.65;9.65;;;19.70;99.90;;;;;;4949081;29;20120;-86
2022/06/09 01:43:51;;;;;;;12.77;9.52;;;19.60;99.90;;;;;;4959986;29;20235;-84
2022/06/09 01:46:29;;;;;;;13.07;8.82;;;19.60;99.90;;;;;;4950404;29;20098;-85
2022/06/09 01:49:01;;;;;;;14.77;8.68;;;19.60;99.90;;;;;;4952107;29;20039;-85
2022/06/09 01:51:31;;;;;;;10.20;7.32;;;19.50;99.90;;;;;;4960571;29;20046;-84
2022/06/09 01:54:20;;;;;;;16.27;6.43;;;19.40;99.90;;;;;;4953939;28;20029;-87
2022/06/09 01:56:52;;;;;;;9.05;4.95;;;19.40;99.90;;;;;;4956381;29;20111;-85
2022/06/09 01:59:28;;;;;;;11.13;5.15;;;19.30;99.90;;;;;;4961120;28;20054;-86
2022/06/09 02:02:11;;;;;;;8.45;4.57;;;19.10;99.90;;;;;;4951790;29;20038;-84
2022/06/09 02:04:43;;;;;;;5.00;3.78;;;19.10;99.90;;;;;;4950157;29;20035;-87
2022/06/09 02:07:10;;;;;;;7.38;4.57;;;18.90;99.90;;;;;;4948936;29;20042;-85
2022/06/09 02:09:37;;;;;;;10.93;3.70;;;18.80;99.90;;;;;;4954855;29;20050;-89
2022/06/09 02:12:10;;;;;;;7.50;4.05;;;18.80;99.90;;;;;;4955233;29;20027;-88
2022/06/09 02:14:38;;;;;;;5.30;3.42;;;18.70;99.90;;;;;;4973866;23;20341;-80
2022/06/09 02:17:06;;;;;;;5.65;3.25;;;18.60;99.90;;;;;;4961099;28;20027;-80
2022/06/09 02:19:32;;;;;;;8.02;3.40;;;18.50;99.90;;;;;;4965229;28;20051;-78
2022/06/09 02:21:58;;;;;;;4.72;2.55;;;18.40;99.90;;;;;;4959862;28;20027;-80
2022/06/09 02:24:24;;;;;;;3.75;2.20;;;18.30;99.90;;;;;;4981490;28;20054;-80
2022/06/09 02:26:49;;;;;;;8.32;2.58;;;18.30;99.90;;;;;;4960685;28;20023;-81
2022/06/09 02:29:15;;;;;;;5.18;2.15;;;18.20;99.90;;;;;;4973696;28;20035;-78
2022/06/09 02:31:42;;;;;;;7.25;2.55;;;18.20;99.90;;;;;;4965956;28;20027;-79
2022/06/09 02:34:09;;;;;;;6.38;2.38;;;18.10;99.90;;;;;;4952218;29;20114;-81
2022/06/09 02:36:35;;;;;;;8.95;1.70;;;18.10;99.90;;;;;;4952412;28;20087;-79
2022/06/09 02:39:01;;;;;;;7.30;2.30;;;18.10;99.90;;;;;;4941763;29;20055;-79
2022/06/09 02:41:27;;;;;;;3.08;1.60;;;18.10;99.90;;;;;;4938568;29;20028;-80
2022/06/09 02:43:53;;;;;;;4.28;2.80;;;18.00;99.90;;;;;;4970374;28;20055;-80
2022/06/09 02:46:19;;;;;;;3.42;1.63;;;17.90;99.90;;;;;;4951811;28;20058;-80
2022/06/09 02:48:45;;;;;;;3.78;1.75;;;17.80;99.90;;;;;;4937366;29;20055;-79
2022/06/09 02:51:27;;;;;;;4.90;1.77;;;17.70;99.90;;;;;;4937913;29;20107;-80
2022/06/09 02:54:00;;;;;;;3.22;1.38;;;17.70;99.90;;;;;;4957737;28;20475;-79
2022/06/09 02:56:27;;;;;;;1.85;1.45;;;17.60;99.90;;;;;;4971124;28;20031;-79
2022/06/09 02:58:53;;;;;;;2.70;1.33;;;17.60;99.90;;;;;;4947747;28;20035;-80
2022/06/09 03:01:20;;;;;;;5.90;1.40;;;17.50;99.90;;;;;;4940811;29;20126;-79
2022/06/09 03:03:46;;;;;;;1.52;1.13;;;17.50;99.90;;;;;;4953936;28;20427;-79
2022/06/09 03:06:11;;;;;;;3.70;1.50;;;17.50;99.90;;;;;;4956305;29;20023;-80
2022/06/09 03:08:38;;;;;;;1.42;1.33;;;17.40;99.90;;;;;;4960547;28;20521;-80
2022/06/09 03:11:04;;;;;;;1.80;1.20;;;17.40;99.90;;;;;;4945562;29;20555;-79
2022/06/09 03:13:30;;;;;;;2.30;1.50;;;17.40;99.90;;;;;;4950726;28;20031;-79
2022/06/09 03:15:58;;;;;;;2.88;1.20;;;17.40;99.90;;;;;;4959177;28;20500;-78
2022/06/09 03:18:23;;;;;;;2.67;1.23;;;17.40;99.90;;;;;;4951837;29;20027;-79
2022/06/09 03:20:50;;;;;;;2.42;1.25;;;17.40;99.90;;;;;;4969931;28;20031;-79
2022/06/09 03:23:16;;;;;;;5.85;1.30;;;17.40;99.90;;;;;;4955770;28;20151;-79
2022/06/09 03:25:43;;;;;;;3.58;1.20;;;17.50;99.90;;;;;;4960323;28;20083;-77
2022/06/09 03:28:09;;;;;;;3.35;1.20;;;17.60;99.90;;;;;;4963286;28;20050;-79
2022/06/09 03:30:35;;;;;;;4.97;1.33;;;17.50;99.90;;;;;;4966616;28;20098;-77
2022/06/09 03:33:01;;;;;;;1.00;0.90;;;17.60;99.90;;;;;;4961101;28;20435;-78
2022/06/09 03:35:28;;;;;;;4.30;1.15;;;17.60;99.90;;;;;;4966389;28;20050;-78
2022/06/09 03:37:53;;;;;;;6.65;1.45;;;17.60;99.90;;;;;;4967767;28;20023;-78
2022/06/09 03:40:21;;;;;;;1.27;0.90;;;17.50;99.90;;;;;;4968843;28;20082;-79
2022/06/09 03:42:47;;;;;;;3.40;1.08;;;17.50;99.90;;;;;;4975653;28;20451;-77
2022/06/09 03:45:13;;;;;;;2.28;0.90;;;17.50;99.90;;;;;;4965693;28;20055;-78
2022/06/09 03:47:39;;;;;;;3.17;1.15;;;17.60;99.90;;;;;;4976608;28;20022;-79
2022/06/09 03:50:19;;;;;;;1.67;0.95;;;17.60;99.90;;;;;;4975607;28;20031;-78
2022/06/09 03:52:45;;;;;;;1.27;1.00;;;17.40;99.90;;;;;;4969960;28;20522;-80
2022/06/09 03:55:11;;;;;;;1.25;1.10;;;17.30;99.90;;;;;;4966575;28;20571;-77
2022/06/09 03:57:37;;;;;;;1.30;1.02;;;17.30;99.90;;;;;;4967136;28;20053;-79
2022/06/09 04:00:05;;;;;;;2.58;1.30;;;17.30;99.90;;;;;;4968375;28;20026;-79
2022/06/09 04:02:31;;;;;;;2.08;1.27;;;17.40;99.90;;;;;;4970218;28;20543;-78
2022/06/09 04:04:58;;;;;;;3.05;1.17;;;17.40;99.90;;;;;;4963516;28;20027;-77
2022/06/09 04:07:25;;;;;;;5.20;1.02;;;17.40;99.90;;;;;;4965373;28;20050;-79
2022/06/09 04:09:50;;;;;;;3.95;1.20;;;17.50;99.90;;;;;;4958967;28;20038;-78
2022/06/09 04:12:16;;;;;;;1.98;1.20;;;17.60;99.90;;;;;;4950822;28;20033;-77
2022/06/09 04:14:42;;;;;;;1.88;0.95;;;17.60;99.90;;;;;;4961624;28;20082;-78
2022/06/09 04:17:11;;;;;;;2.08;1.13;;;17.60;99.90;;;;;;4950445;29;20027;-79
2022/06/09 04:19:37;;;;;;;2.47;1.20;;;17.70;99.90;;;;;;4964145;28;20023;-79
2022/06/09 04:22:04;;;;;;;3.50;1.33;;;17.60;99.90;;;;;;4957091;29;20491;-78
2022/06/09 04:24:30;;;;;;;3.80;1.15;;;17.60;99.90;;;;;;4939336;29;20028;-78
2022/06/09 04:26:58;;;;;;;3.88;1.88;;;17.60;99.90;;;;;;4959146;28;20483;-77
2022/06/09 04:29:24;;;;;;;2.95;1.40;;;17.50;99.90;;;;;;4968835;28;20062;-78
2022/06/09 04:31:49;;;;;;;3.30;1.20;;;17.50;99.90;;;;;;4957248;28;20042;-78
2022/06/09 04:34:15;;;;;;;4.60;1.25;;;17.50;99.90;;;;;;4974520;28;20058;-78
2022/06/09 04:36:41;;;;;;;2.08;1.00;;;17.40;99.90;;;;;;4961496;28;20041;-79
2022/06/09 04:39:08;;;;;;;2.78;1.10;;;17.40;99.90;;;;;;4961802;28;20032;-78
2022/06/09 04:41:34;;;;;;;12.98;1.27;;;17.40;99.90;;;;;;4967416;28;20039;-79
2022/06/09 04:44:00;;;;;;;5.70;1.30;;;17.40;99.90;;;;;;4958617;29;20102;-79
2022/06/09 04:46:26;;;;;;;3.85;0.93;;;17.30;99.90;;;;;;4967354;28;20050;-78
2022/06/09 04:48:52;;;;;;;2.20;1.02;;;17.30;99.90;;;;;;4965377;28;20106;-78
2022/06/09 04:51:20;;;;;;;4.00;1.33;;;17.40;99.90;;;;;;4946199;29;20130;-77
2022/06/09 04:53:47;;;;;;;5.10;1.30;;;17.40;99.90;;;;;;4960917;28;20027;-78
2022/06/09 04:56:14;;;;;;;2.08;1.52;;;17.40;99.90;;;;;;4949703;28;20040;-78
2022/06/09 04:58:41;;;;;;;3.65;1.35;;;17.40;99.90;;;;;;4964019;28;20031;-79
2022/06/09 05:01:15;;;;;;;2.70;1.25;;;17.40;99.90;;;;;;4940139;29;20031;-79
2022/06/09 05:03:41;;;;;;;3.13;1.10;;;17.30;99.90;;;;;;4964715;28;20106;-79
2022/06/09 05:06:06;;;;;;;4.55;1.45;;;17.20;99.90;;;;;;4948918;28;20563;-77
2022/06/09 05:08:32;;;;;;;4.47;1.40;;;17.20;99.90;;;;;;4956517;28;20043;-77
2022/06/09 05:10:58;;;;;;;3.85;1.25;;;17.10;99.90;;;;;;4939116;28;20031;-80
2022/06/09 05:13:24;;;;;;;9.40;1.17;;;17.20;99.90;;;;;;4962674;28;20031;-78
2022/06/09 05:15:54;;;;;;;4.05;1.48;;;17.20;99.90;;;;;;4953217;28;20487;-77
2022/06/09 05:18:25;;;;;;;2.45;1.30;;;17.10;99.90;;;;;;4943550;29;20031;-77
2022/06/09 05:20:52;;;;;;;2.42;1.35;;;17.10;99.90;;;;;;4959874;29;20085;-77
2022/06/09 05:23:19;;;;;;;3.13;1.30;;;17.00;99.90;;;;;;4963393;28;20062;-77
2022/06/09 05:25:53;;;;;;;2.28;1.55;;;17.00;99.90;;;;;;4956737;28;20050;-77
2022/06/09 05:28:20;;;;;;;4.53;1.92;;;17.00;99.90;;;;;;4957694;29;20099;-77
2022/06/09 05:30:46;;;;;;;3.95;1.60;;;16.90;99.90;;;;;;4963954;28;20054;-79
2022/06/09 05:33:12;;;;;;;5.78;1.60;;;17.00;99.90;;;;;;4965868;28;20046;-81
2022/06/09 05:35:39;;;;;;;5.55;1.30;;;16.90;99.90;;;;;;4949319;29;20039;-78
2022/06/09 05:46:22;;;;;;;9.57;4.87;;;17.00;99.90;;;;;;4957097;29;20059;-83
2022/06/09 05:48:48;;;;;;;4.03;1.60;;;17.00;99.90;;;;;;4965383;28;20110;-79
2022/06/09 05:51:16;;;;;;;4.00;1.50;;;17.00;99.90;;;;;;4969968;28;20069;-81
2022/06/09 05:53:42;;;;;;;5.72;2.30;;;17.00;99.90;;;;;;4967209;28;20111;-79
2022/06/09 05:56:08;;;;;;;8.43;1.65;;;17.10;99.90;;;;;;4972137;28;20051;-80
2022/06/09 05:58:35;;;;;;;4.50;1.45;;;17.20;99.90;;;;;;4969039;28;20023;-81
2022/06/09 06:01:07;;;;;;;2.47;1.30;;;17.20;99.90;;;;;;4970731;28;20043;-78
2022/06/09 06:03:33;;;;;;;3.33;1.42;;;17.30;99.90;;;;;;4977496;28;20054;-79
2022/06/09 06:08:43;;;;;;;5.38;1.63;;;17.40;99.90;;;;;;4984011;28;20026;-80
2022/06/09 06:11:10;;;;;;;5.72;1.23;;;17.40;99.90;;;;;;4982114;28;20066;-78
2022/06/09 06:13:36;;;;;;;1.90;1.45;;;17.40;99.90;;;;;;4978669;28;20077;-78
2022/06/09 06:16:02;;;;;;;3.63;1.25;;;17.50;99.90;;;;;;4977605;28;20035;-78
2022/06/09 06:18:28;;;;;;;4.68;1.42;;;17.50;99.90;;;;;;4969240;28;20050;-80
2022/06/09 06:20:55;;;;;;;6.30;1.60;;;17.60;99.90;;;;;;4979261;28;20019;-79
2022/06/09 06:23:23;;;;;;;5.80;1.30;;;17.70;99.90;;;;;;4983971;28;20024;-78
2022/06/09 06:25:48;;;;;;;2.25;1.10;;;17.80;99.90;;;;;;4968272;28;20030;-78
2022/06/09 06:28:14;;;;;;;2.38;1.30;;;18.00;99.90;;;;;;4970054;29;20035;-80
2022/06/09 06:30:40;;;;;;;4.13;1.27;;;18.10;99.90;;;;;;4973396;28;20027;-80
2022/06/09 06:33:06;;;;;;;5.07;3.47;;;18.10;99.90;;;;;;4970202;29;20094;-79
2022/06/09 06:35:32;;;;;;;2.75;1.70;;;18.30;99.90;;;;;;4973369;29;20622;-79
2022/06/09 06:37:57;;;;;;;4.45;1.92;;;18.50;99.90;;;;;;4971873;29;20046;-78
2022/06/09 06:40:23;;;;;;;2.92;1.20;;;18.70;99.90;;;;;;4971126;28;20027;-77
2022/06/09 06:42:49;;;;;;;2.53;1.38;;;18.80;99.90;;;;;;4971922;28;20091;-79
2022/06/09 06:45:15;;;;;;;4.07;1.30;;;18.90;99.90;;;;;;4966892;29;20023;-78
2022/06/09 06:47:41;;;;;;;5.78;1.48;;;19.00;99.90;;;;;;4969503;28;20041;-77
2022/06/09 06:50:09;;;;;;;2.78;1.30;;;19.10;99.90;;;;;;4972377;28;20027;-77
2022/06/09 06:52:35;;;;;;;2.90;1.30;;;19.20;99.90;;;;;;4986931;28;20018;-78
2022/06/09 06:55:00;;;;;;;2.97;1.17;;;19.20;99.90;;;;;;4987067;28;20050;-80
2022/06/09 06:57:26;;;;;;;4.57;2.15;;;19.10;99.90;;;;;;4981563;28;20066;-78
2022/06/09 06:59:52;;;;;;;1.95;1.30;;;19.10;99.90;;;;;;4970058;28;20039;-78
2022/06/09 07:02:21;;;;;;;6.82;1.85;;;19.00;99.90;;;;;;4973830;28;20076;-80
2022/06/09 07:04:46;;;;;;;2.60;1.33;;;19.10;99.90;;;;;;4973576;28;20035;-80
2022/06/09 07:07:12;;;;;;;2.53;1.35;;;19.00;99.90;;;;;;4968097;28;20084;-78
2022/06/09 07:09:39;;;;;;;5.22;2.10;;;18.90;99.90;;;;;;4966155;28;20069;-80
2022/06/09 07:12:05;;;;;;;2.58;1.67;;;19.00;99.90;;;;;;4967833;28;20415;-80
2022/06/09 07:14:33;;;;;;;4.15;1.27;;;19.00;99.90;;;;;;4967453;28;20498;-80
2022/06/09 07:17:00;;;;;;;2.58;1.10;;;19.10;99.90;;;;;;4969221;28;20054;-79
2022/06/09 07:19:26;;;;;;;6.30;1.70;;;19.10;99.90;;;;;;4968970;28;20035;-80
2022/06/09 07:21:52;;;;;;;7.80;1.35;;;18.90;99.90;;;;;;4968363;28;20299;-77
2022/06/09 07:24:18;;;;;;;5.20;1.45;;;19.00;99.90;;;;;;4981130;28;20026;-78
2022/06/09 07:26:45;;;;;;;1.45;1.00;;;19.20;99.90;;;;;;4979400;28;20046;-77
2022/06/09 07:29:11;;;;;;;1.88;1.23;;;19.20;99.90;;;;;;4977521;28;20092;-78
2022/06/09 07:31:38;;;;;;;7.07;2.10;;;19.20;99.90;;;;;;4980600;28;20029;-79
2022/06/09 07:34:04;;;;;;;2.38;1.13;;;19.40;99.90;;;;;;4981044;28;20031;-78
2022/06/09 07:36:30;;;;;;;4.50;1.20;;;19.60;99.90;;;;;;4977266;28;20027;-80
2022/06/09 07:38:56;;;;;;;3.00;1.63;;;19.70;99.90;;;;;;4971951;28;20019;-80
2022/06/09 07:41:22;;;;;;;3.38;1.48;;;19.80;99.90;;;;;;4966172;28;20046;-79
2022/06/09 07:43:49;;;;;;;2.67;1.30;;;20.10;99.90;;;;;;4960183;29;20511;-80
2022/06/09 07:46:15;;;;;;;4.93;1.23;;;20.10;99.90;;;;;;4965213;28;20027;-80
2022/06/09 07:48:42;;;;;;;2.40;1.30;;;20.10;99.90;;;;;;4972571;28;20047;-77
2022/06/09 07:51:08;;;;;;;3.63;1.13;;;20.10;99.90;;;;;;4979743;28;20096;-78
2022/06/09 07:53:34;;;;;;;4.03;1.13;;;20.10;99.90;;;;;;4977717;28;20030;-79
2022/06/09 07:56:00;;;;;;;3.97;1.23;;;20.00;99.90;;;;;;4960538;28;20039;-79
2022/06/09 07:58:26;;;;;;;6.28;1.30;;;19.90;99.90;;;;;;4956285;28;20027;-77
2022/06/09 08:00:52;;;;;;;5.38;1.35;;;19.80;99.90;;;;;;4957722;29;20042;-82
2022/06/09 08:03:23;;;;;;;3.47;1.55;;;19.70;99.90;;;;;;4960485;29;20027;-80
2022/06/09 08:05:49;;;;;;;1.50;1.00;;;19.80;99.90;;;;;;4960498;29;20027;-78
2022/06/09 08:08:15;;;;;;;3.28;1.10;;;19.90;99.90;;;;;;4960872;28;20031;-80
2022/06/09 08:10:42;;;;;;;1.65;0.93;;;19.70;99.90;;;;;;4959909;29;20031;-80
2022/06/09 08:13:09;;;;;;;2.15;0.98;;;19.50;99.90;;;;;;4965887;28;20106;-82
2022/06/09 08:15:37;;;;;;;1.25;1.05;;;19.60;99.90;;;;;;4965710;23;20051;-79
2022/06/09 08:18:03;;;;;;;3.25;1.15;;;19.60;99.90;;;;;;4945644;29;20085;-79
2022/06/09 08:20:33;;;;;;;2.85;1.27;;;19.50;99.90;;;;;;4942115;29;20036;-80
2022/06/09 08:23:09;;;;;;;3.50;1.45;;;19.60;99.90;;;;;;4938770;29;20024;-80
2022/06/09 08:25:37;;;;;;;3.78;1.40;;;19.50;99.90;;;;;;4960900;28;20047;-79
2022/06/09 08:28:04;;;;;;;2.08;1.10;;;19.50;99.90;;;;;;4948356;28;20030;-79
2022/06/09 08:30:32;;;;;;;6.32;1.27;;;19.40;99.90;;;;;;4951125;28;20108;-81
2022/06/09 08:32:58;;;;;;;3.33;1.30;;;19.30;99.90;;;;;;4954438;28;20036;-79
2022/06/09 08:35:25;;;;;;;4.20;1.30;;;19.30;99.90;;;;;;4953309;28;20034;-81
2022/06/09 08:37:52;;;;;;;2.47;1.00;;;19.40;99.90;;;;;;4950201;28;20127;-81
2022/06/09 08:40:22;;;;;;;4.28;1.40;;;19.40;99.90;;;;;;4956424;28;20040;-81
2022/06/09 08:43:09;;;;;;;5.10;1.48;;;19.30;99.90;;;;;;4958173;28;20058;-80
2022/06/09 08:45:40;;;;;;;4.38;1.27;;;19.20;99.90;;;;;;4982040;28;20085;-85
2022/06/09 08:48:17;;;;;;;2.35;1.20;;;19.20;99.90;;;;;;4954838;28;20032;-86
2022/06/09 08:50:57;;;;;;;3.15;1.10;;;19.20;99.90;;;;;;4959120;29;20043;-85
2022/06/09 08:53:31;;;;;;;4.05;1.30;;;19.20;99.90;;;;;;4934134;29;20048;-86
2022/06/09 08:56:10;;;;;;;3.50;1.05;;;19.30;99.90;;;;;;4951025;29;20034;-85
2022/06/09 08:58:47;;;;;;;8.20;1.95;;;19.30;99.90;;;;;;4951970;29;20048;-85
2022/06/09 09:01:35;;;;;;;5.15;1.60;;;19.40;99.90;;;;;;4951248;29;20059;-84
2022/06/09 09:04:07;;;;;;;4.78;1.25;;;19.40;99.90;;;;;;4951783;29;20039;-86
2022/06/09 09:06:43;;;;;;;7.43;1.45;;;19.50;99.90;;;;;;4951470;29;20055;-86
2022/06/09 09:09:15;;;;;;;2.72;1.38;;;19.50;99.90;;;;;;4967862;29;20090;-86
2022/06/09 09:11:55;;;;;;;2.58;1.23;;;19.50;99.90;;;;;;4972289;28;20042;-85
2022/06/09 09:15:02;;;;;;;2.67;1.38;;;19.50;99.90;;;;;;4992300;28;20044;-86
2022/06/09 09:17:38;;;;;;;6.20;1.10;;;19.40;99.90;;;;;;4971941;28;20028;-86
2022/06/09 09:20:26;;;;;;;7.55;1.40;;;19.40;99.90;;;;;;4969407;28;20027;-85
2022/06/09 09:22:55;;;;;;;4.00;1.40;;;19.20;99.90;;;;;;4939543;29;20021;-87
2022/06/09 09:25:25;;;;;;;2.38;1.30;;;19.20;99.90;;;;;;4931619;29;20083;-87
2022/06/09 09:28:10;;;;;;;4.22;1.30;;;19.20;99.90;;;;;;4930856;29;20073;-86
2022/06/09 09:30:39;;;;;;;;;;;19.10;99.90;;;;;;4932361;29;20036;-89
2022/06/09 09:33:04;;;;;;;1.25;1.10;;;18.90;99.90;;;;;;4948343;29;19918;-86
2022/06/09 09:35:35;;;;;;;2.10;1.17;;;18.90;99.90;;;;;;4933307;29;20032;-86
2022/06/09 09:38:01;;;;;;;7.72;1.40;;;18.90;99.90;;;;;;4931968;29;20044;-86
2022/06/09 09:40:43;;;;;;;6.95;1.25;;;18.90;99.90;;;;;;4931872;29;20027;-86
2022/06/09 09:43:21;;;;;;;1.52;1.40;;;18.90;99.90;;;;;;4938181;29;20185;-86
2022/06/09 09:45:49;;;;;;;6.45;1.40;;;18.90;99.90;;;;;;4938150;29;20036;-85
2022/06/09 09:48:19;;;;;;;4.70;2.13;;;18.90;99.90;;;;;;4937598;29;20038;-85
2022/06/09 09:50:59;;;;;;;3.45;1.25;;;18.90;99.90;;;;;;4937716;29;20040;-85
2022/06/09 09:53:33;;;;;;;1.85;1.08;;;19.00;99.90;;;;;;4932285;29;20116;-86
2022/06/09 09:56:16;;;;;;;5.77;1.80;;;19.10;99.90;;;;;;4944305;29;20466;-88
2022/06/09 09:58:48;;;;;;;3.33;1.60;;;19.10;99.90;;;;;;4952259;29;20523;-87
2022/06/09 10:01:14;;;;;;;2.42;1.48;;;19.40;99.90;;;;;;4952469;29;20039;-86
2022/06/09 10:09:37;;;;;;;3.88;1.20;;;20.40;99.90;;;;;;4959748;28;20067;-84
2022/06/09 10:12:16;;;;;;;2.28;1.10;;;20.90;99.90;;;;;;4960402;28;20031;-84
2022/06/09 10:14:53;;;;;;;2.13;1.00;;;21.50;99.90;;;;;;4960224;28;20036;-84
2022/06/09 10:17:25;;;;;;;3.38;1.20;;;21.60;99.90;;;;;;4960223;28;20034;-85
2022/06/09 10:20:15;;;;;;;3.00;1.02;;;21.40;99.90;;;;;;4958731;29;20095;-84
2022/06/09 10:22:54;;;;;;;7.68;1.58;;;21.10;99.90;;;;;;4960370;29;20024;-85
2022/06/09 10:25:33;;;;;;;3.25;1.23;;;20.80;99.90;;;;;;4955644;29;20046;-87
2022/06/09 10:28:13;;;;;;;4.68;1.27;;;20.40;99.90;;;;;;4958606;29;20080;-84
2022/06/09 10:31:02;;;;;;;2.75;1.20;;;20.30;99.90;;;;;;4978212;28;20020;-84
2022/06/09 10:33:58;;;;;;;3.83;0.90;;;20.30;99.90;;;;;;4978914;28;20015;-86
2022/06/09 10:36:37;;;;;;;;;;;20.30;99.90;;;;;;4960169;28;20078;-85
2022/06/09 10:39:09;;;;;;;2.08;1.25;;;20.20;99.90;;;;;;4975207;28;19922;-86
2022/06/09 10:41:43;;;;;;;2.25;1.52;;;20.00;99.90;;;;;;4968943;28;20046;-87
2022/06/09 10:44:26;;;;;;;5.20;1.10;;;20.00;99.90;;;;;;4970717;28;20032;-86
2022/06/09 10:56:18;;;;;;;10.95;1.30;;;20.10;99.90;;;;;;4967628;28;20031;-86
2022/06/09 10:59:15;;;;;;;2.13;1.20;;;20.00;99.90;;;;;;4952529;29;20039;-86
2022/06/09 11:01:41;;;;;;;6.50;1.17;;;20.00;99.90;;;;;;4946255;29;20396;-87
2022/06/09 11:04:13;;;;;;;2.90;1.00;;;19.80;99.90;;;;;;4964982;28;20041;-86
2022/06/09 11:07:26;;;;;;;2.85;1.08;;;19.80;99.90;;;;;;4948704;29;20086;-85
2022/06/09 11:10:05;;;;;;;5.35;1.20;;;19.80;99.90;;;;;;4949325;29;20028;-85
2022/06/09 11:12:46;;;;;;;3.05;1.00;;;19.70;99.90;;;;;;4953725;29;20015;-84
2022/06/09 11:15:39;;;;;;;2.22;1.10;;;19.80;99.90;;;;;;4949128;28;20063;-84
2022/06/09 11:18:47;;;;;;;3.22;1.35;;;19.80;99.90;;;;;;4967314;28;20043;-85
2022/06/09 11:21:27;;;;;;;2.58;1.10;;;19.90;99.90;;;;;;4948078;29;20031;-85
2022/06/09 11:24:28;;;;;;;3.15;1.10;;;20.00;99.90;;;;;;4956883;28;20111;-84
2022/06/09 11:27:18;;;;;;;3.58;1.00;;;20.10;99.90;;;;;;4956705;29;20020;-85
2022/06/09 11:30:06;;;;;;;2.22;1.00;;;20.10;99.90;;;;;;4940740;29;20034;-83
2022/06/09 11:33:11;;;;;;;3.88;1.10;;;20.10;99.90;;;;;;4940211;29;20055;-83
2022/06/09 11:36:09;;;;;;;9.88;1.38;;;20.10;99.90;;;;;;4911669;29;20080;-85
2022/06/09 11:38:49;;;;;;;1.30;0.90;;;20.10;99.90;;;;;;4911084;29;20071;-84
2022/06/09 11:41:18;;;;;;;1.80;1.17;;;20.00;99.90;;;;;;4940160;29;20043;-85
2022/06/09 11:44:07;;;;;;;3.22;2.00;;;20.00;99.90;;;;;;4940448;29;20039;-85
2022/06/09 11:46:38;;;;;;;1.88;1.20;;;19.90;99.90;;;;;;4932815;29;20036;-85
2022/06/09 11:49:10;;;;;;;2.03;1.13;;;19.90;99.90;;;;;;4940488;29;20051;-86
2022/06/09 11:51:36;;;;;;;3.92;1.30;;;19.80;99.90;;;;;;4939805;29;20036;-84
2022/06/09 11:54:06;;;;;;;6.30;1.70;;;19.80;99.90;;;;;;4923668;29;20048;-85
2022/06/09 11:56:36;;;;;;;2.28;1.20;;;19.70;99.90;;;;;;4932974;29;20032;-84
2022/06/09 11:59:11;;;;;;;4.18;1.50;;;19.70;99.90;;;;;;4941946;29;20045;-85
2022/06/09 12:01:40;;;;;;;1.42;1.10;;;19.80;99.90;;;;;;4930864;29;20043;-84
2022/06/09 12:04:26;;;;;;;2.03;1.27;;;19.70;99.90;;;;;;4932113;29;20039;-84
2022/06/09 12:07:03;;;;;;;1.73;1.17;;;19.70;99.90;;;;;;4933239;29;20032;-85
2022/06/09 12:09:44;;;;;;;1.77;1.10;;;19.70;99.90;;;;;;4934653;29;20064;-84
2022/06/09 12:12:32;;;;;;;1.50;1.20;;;19.80;99.90;;;;;;4935745;29;20028;-85
2022/06/09 12:15:23;;;;;;;2.13;1.38;;;19.80;99.90;;;;;;4935641;29;20151;-84
2022/06/09 12:18:12;;;;;;;3.45;1.20;;;19.90;99.90;;;;;;4936816;29;20032;-84
2022/06/09 12:20:42;;;;;;;1.30;1.05;;;19.90;99.90;;;;;;4928078;29;20071;-85
2022/06/09 12:23:48;;;;;;;1.50;1.10;;;19.80;99.90;;;;;;4935285;29;20025;-85
2022/06/09 12:26:18;;;;;;;4.35;1.50;;;19.80;99.90;;;;;;4906427;29;20044;-84
2022/06/09 12:28:53;;;;;;;1.38;1.10;;;19.80;99.90;;;;;;4968919;29;20020;-86
2022/06/09 12:31:27;;;;;;;5.45;1.40;;;19.80;99.90;;;;;;4959044;29;20019;-84
2022/06/09 12:34:09;;;;;;;1.35;1.05;;;19.80;99.90;;;;;;4960976;29;20068;-85
2022/06/09 12:36:41;;;;;;;4.47;1.33;;;19.80;99.90;;;;;;4960196;29;20028;-84
2022/06/09 12:39:27;;;;;;;2.47;1.50;;;20.00;99.90;;;;;;4958493;29;20031;-86
2022/06/09 12:41:59;;;;;;;1.85;1.10;;;20.10;99.90;;;;;;4961636;29;20040;-85
2022/06/09 12:44:44;;;;;;;4.78;1.40;;;20.10;99.90;;;;;;4952947;29;20147;-85
2022/06/09 12:47:21;;;;;;;4.75;1.60;;;19.90;99.90;;;;;;4958105;29;20016;-84
2022/06/09 12:49:51;;;;;;;3.35;1.40;;;19.70;99.90;;;;;;4952934;29;20082;-85
2022/06/09 12:52:40;;;;;;;1.08;1.08;;;19.60;99.90;;;;;;4951829;29;20090;-85
2022/06/09 12:55:14;;;;;;;3.67;1.23;;;19.50;99.90;;;;;;4951043;29;20036;-85
2022/06/09 12:57:50;;;;;;;2.53;1.20;;;19.30;99.90;;;;;;4950571;29;20062;-85
2022/06/09 13:00:19;;;;;;;11.60;7.95;;;19.20;99.90;;;;;;4952603;29;20039;-84
2022/06/09 13:02:45;;;;;;;5.57;1.30;;;19.10;99.90;;;;;;4953427;29;20024;-84
2022/06/09 13:05:35;;;;;;;2.13;1.70;;;19.10;99.90;;;;;;4952970;29;20197;-86
2022/06/09 13:08:18;;;;;;;4.20;1.40;;;19.00;99.90;;;;;;4951494;29;20036;-85
2022/06/09 13:10:52;;;;;;;2.35;1.38;;;18.80;99.90;;;;;;4940561;29;20040;-84
2022/06/09 13:13:38;;;;;;;1.73;1.35;;;18.80;99.90;;;;;;4952137;29;20032;-85
2022/06/09 13:16:13;;;;;;;2.58;1.77;;;18.80;99.90;;;;;;4951486;29;20494;-83
2022/06/09 13:18:46;;;;;;;3.88;1.58;;;18.80;99.90;;;;;;4957010;29;20043;-85
2022/06/09 13:21:21;;;;;;;2.80;1.30;;;18.80;99.90;;;;;;4963491;28;20111;-85
2022/06/09 13:23:49;;;;;;;;;;;18.80;99.90;;;;;;4962113;28;20019;-85
2022/06/09 13:26:23;;;;;;;4.55;1.45;;;18.70;99.90;;;;;;4962109;29;19901;-87
2022/06/09 13:28:52;;;;;;;4.35;1.85;;;18.70;99.90;;;;;;4956801;28;20031;-87
2022/06/09 13:31:30;;;;;;;2.38;1.58;;;18.80;99.90;;;;;;4951230;29;20078;-88
2022/06/09 13:34:20;;;;;;;2.10;1.70;;;18.90;99.90;;;;;;4960471;28;20027;-86
2022/06/09 13:36:54;;;;;;;3.63;1.27;;;19.00;99.90;;;;;;4958187;28;20039;-86